sensor_id;sensor_type;location;lat;lon;timestamp;pressure;altitude;pressure_sealevel;temperature;humidity
71621;BME280;59471;42.254;23.102;2022-11-20T00:01:17;95197.28;;;18.12;55.90
71621;BME280;59471;42.254;23.102;2022-11-20T00:03:44;95187.59;;;18.17;55.66
71621;BME280;59471;42.254;23.102;2022-11-20T00:06:13;95204.06;;;18.19;56.04
71621;BME280;59471;42.254;23.102;2022-11-20T00:08:40;95193.75;;;18.06;57.34
71621;BME280;59471;42.254;23.102;2022-11-20T00:11:15;95183.00;;;17.96;56.28
71621;BME280;59471;42.254;23.102;2022-11-20T00:13:46;95195.53;;;18.17;55.21
71621;BME280;59471;42.254;23.102;2022-11-20T00:16:14;95197.13;;;18.18;55.47
71621;BME280;59471;42.254;23.102;2022-11-20T00:18:41;95176.59;;;18.25;55.19
71621;BME280;59471;42.254;23.102;2022-11-20T00:21:13;95174.44;;;18.22;54.96
71621;BME280;59471;42.254;23.102;2022-11-20T00:23:50;95179.25;;;18.25;54.52
71621;BME280;59471;42.254;23.102;2022-11-20T00:26:19;95181.00;;;18.37;53.91
71621;BME280;59471;42.254;23.102;2022-11-20T00:29:00;95172.66;;;18.45;53.94
71621;BME280;59471;42.254;23.102;2022-11-20T00:31:27;95178.28;;;18.32;54.59
71621;BME280;59471;42.254;23.102;2022-11-20T00:33:53;95182.84;;;18.36;54.36
71621;BME280;59471;42.254;23.102;2022-11-20T00:36:24;95184.38;;;18.49;54.11
71621;BME280;59471;42.254;23.102;2022-11-20T00:38:52;95177.47;;;18.48;53.81
71621;BME280;59471;42.254;23.102;2022-11-20T00:41:22;95179.47;;;18.41;54.31
71621;BME280;59471;42.254;23.102;2022-11-20T00:43:49;95178.81;;;18.34;53.74
71621;BME280;59471;42.254;23.102;2022-11-20T00:46:19;95191.75;;;18.47;53.22
71621;BME280;59471;42.254;23.102;2022-11-20T00:48:46;95192.31;;;18.49;53.57
71621;BME280;59471;42.254;23.102;2022-11-20T00:51:14;95181.41;;;18.45;53.60
71621;BME280;59471;42.254;23.102;2022-11-20T00:53:41;95167.41;;;18.50;53.21
71621;BME280;59471;42.254;23.102;2022-11-20T00:56:10;95178.50;;;18.47;53.68
71621;BME280;59471;42.254;23.102;2022-11-20T00:58:39;95173.75;;;18.49;53.14
71621;BME280;59471;42.254;23.102;2022-11-20T01:01:12;95150.28;;;18.41;53.31
71621;BME280;59471;42.254;23.102;2022-11-20T01:03:42;95192.41;;;18.54;53.27
71621;BME280;59471;42.254;23.102;2022-11-20T01:06:18;95163.28;;;18.59;52.85
71621;BME280;59471;42.254;23.102;2022-11-20T01:08:47;95156.00;;;18.49;53.02
71621;BME280;59471;42.254;23.102;2022-11-20T01:11:15;95165.81;;;18.49;53.39
71621;BME280;59471;42.254;23.102;2022-11-20T01:13:43;95168.38;;;18.44;53.28
71621;BME280;59471;42.254;23.102;2022-11-20T01:18:39;95159.88;;;18.42;53.49
71621;BME280;59471;42.254;23.102;2022-11-20T01:21:09;95160.84;;;18.36;53.25
71621;BME280;59471;42.254;23.102;2022-11-20T01:23:43;95148.13;;;18.38;53.46
71621;BME280;59471;42.254;23.102;2022-11-20T01:26:13;95151.34;;;18.40;52.54
71621;BME280;59471;42.254;23.102;2022-11-20T01:28:41;95129.66;;;18.43;52.81
71621;BME280;59471;42.254;23.102;2022-11-20T01:31:18;95134.88;;;18.38;52.95
71621;BME280;59471;42.254;23.102;2022-11-20T01:33:47;95121.78;;;18.48;53.21
71621;BME280;59471;42.254;23.102;2022-11-20T01:36:14;95127.25;;;18.41;53.14
71621;BME280;59471;42.254;23.102;2022-11-20T01:38:41;95100.41;;;18.38;53.38
71621;BME280;59471;42.254;23.102;2022-11-20T01:41:08;95107.81;;;18.36;53.25
71621;BME280;59471;42.254;23.102;2022-11-20T01:43:35;95100.41;;;18.38;53.08
71621;BME280;59471;42.254;23.102;2022-11-20T01:46:19;95102.84;;;18.39;53.29
71621;BME280;59471;42.254;23.102;2022-11-20T01:48:53;95087.84;;;18.50;53.12
71621;BME280;59471;42.254;23.102;2022-11-20T01:51:33;95108.44;;;18.43;53.18
71621;BME280;59471;42.254;23.102;2022-11-20T01:54:03;95087.25;;;18.43;52.71
71621;BME280;59471;42.254;23.102;2022-11-20T01:56:33;95096.44;;;18.35;54.20
71621;BME280;59471;42.254;23.102;2022-11-20T01:59:04;95097.00;;;18.20;54.35
71621;BME280;59471;42.254;23.102;2022-11-20T02:01:31;95088.09;;;18.26;53.29
71621;BME280;59471;42.254;23.102;2022-11-20T02:03:57;95110.53;;;18.41;52.81
71621;BME280;59471;42.254;23.102;2022-11-20T02:06:34;95091.44;;;18.39;53.05
71621;BME280;59471;42.254;23.102;2022-11-20T02:09:01;95088.97;;;18.32;52.93
71621;BME280;59471;42.254;23.102;2022-11-20T02:11:28;95125.81;;;18.34;53.37
71621;BME280;59471;42.254;23.102;2022-11-20T02:13:55;95108.94;;;18.40;53.57
71621;BME280;59471;42.254;23.102;2022-11-20T02:16:23;95123.59;;;18.25;54.63
71621;BME280;59471;42.254;23.102;2022-11-20T02:18:53;95127.84;;;18.26;54.12
71621;BME280;59471;42.254;23.102;2022-11-20T02:22:07;95128.47;;;18.34;54.04
71621;BME280;59471;42.254;23.102;2022-11-20T02:24:21;95120.38;;;18.23;55.48
71621;BME280;59471;42.254;23.102;2022-11-20T02:26:59;95126.00;;;18.10;55.54
71621;BME280;59471;42.254;23.102;2022-11-20T02:32:38;95132.97;;;17.82;57.13
71621;BME280;59471;42.254;23.102;2022-11-20T02:37:48;95139.81;;;17.95;57.20
71621;BME280;59471;42.254;23.102;2022-11-20T02:40:16;95141.41;;;17.96;56.85
71621;BME280;59471;42.254;23.102;2022-11-20T02:42:41;95138.03;;;17.84;57.85
71621;BME280;59471;42.254;23.102;2022-11-20T02:45:07;95157.47;;;17.90;56.70
71621;BME280;59471;42.254;23.102;2022-11-20T02:47:33;95155.38;;;17.92;56.92
71621;BME280;59471;42.254;23.102;2022-11-20T02:49:59;95139.47;;;17.75;57.70
71621;BME280;59471;42.254;23.102;2022-11-20T02:52:25;95153.22;;;17.60;58.57
71621;BME280;59471;42.254;23.102;2022-11-20T02:54:51;95163.75;;;17.43;60.47
71621;BME280;59471;42.254;23.102;2022-11-20T02:57:17;95172.16;;;17.40;60.09
71621;BME280;59471;42.254;23.102;2022-11-20T02:59:42;95186.41;;;17.51;58.71
71621;BME280;59471;42.254;23.102;2022-11-20T03:02:08;95180.81;;;17.64;58.14
71621;BME280;59471;42.254;23.102;2022-11-20T03:04:33;95172.03;;;17.75;57.03
71621;BME280;59471;42.254;23.102;2022-11-20T03:06:59;95179.59;;;17.83;56.98
71621;BME280;59471;42.254;23.102;2022-11-20T03:09:24;95163.03;;;17.76;57.22
71621;BME280;59471;42.254;23.102;2022-11-20T03:11:50;95171.66;;;17.55;58.24
71621;BME280;59471;42.254;23.102;2022-11-20T03:14:16;95182.41;;;17.77;56.58
71621;BME280;59471;42.254;23.102;2022-11-20T03:16:42;95193.31;;;17.80;56.19
71621;BME280;59471;42.254;23.102;2022-11-20T03:19:07;95191.41;;;17.93;56.02
71621;BME280;59471;42.254;23.102;2022-11-20T03:21:33;95190.78;;;17.86;55.92
71621;BME280;59471;42.254;23.102;2022-11-20T03:24:00;95205.38;;;17.88;56.57
71621;BME280;59471;42.254;23.102;2022-11-20T03:26:27;95197.44;;;17.88;56.23
71621;BME280;59471;42.254;23.102;2022-11-20T03:28:57;95194.47;;;17.85;56.83
71621;BME280;59471;42.254;23.102;2022-11-20T03:31:29;95201.28;;;17.80;57.10
71621;BME280;59471;42.254;23.102;2022-11-20T03:33:57;95209.78;;;17.82;57.02
71621;BME280;59471;42.254;23.102;2022-11-20T03:36:24;95227.28;;;17.83;56.56
71621;BME280;59471;42.254;23.102;2022-11-20T03:38:50;95221.03;;;17.90;56.82
71621;BME280;59471;42.254;23.102;2022-11-20T03:41:21;95216.38;;;17.68;58.11
71621;BME280;59471;42.254;23.102;2022-11-20T03:43:50;95211.31;;;17.78;58.60
71621;BME280;59471;42.254;23.102;2022-11-20T03:46:18;95217.91;;;17.64;59.30
71621;BME280;59471;42.254;23.102;2022-11-20T03:48:43;95212.41;;;17.54;58.75
71621;BME280;59471;42.254;23.102;2022-11-20T03:51:20;95212.88;;;17.51;59.77
71621;BME280;59471;42.254;23.102;2022-11-20T03:53:49;95213.31;;;17.31;61.22
71621;BME280;59471;42.254;23.102;2022-11-20T03:56:17;95217.09;;;17.23;61.11
71621;BME280;59471;42.254;23.102;2022-11-20T03:58:44;95222.13;;;17.36;61.42
71621;BME280;59471;42.254;23.102;2022-11-20T04:01:13;95220.25;;;17.08;62.76
71621;BME280;59471;42.254;23.102;2022-11-20T04:03:41;95217.63;;;16.61;65.51
71621;BME280;59471;42.254;23.102;2022-11-20T04:06:10;95221.41;;;16.54;67.50
71621;BME280;59471;42.254;23.102;2022-11-20T04:08:39;95234.84;;;16.40;68.95
71621;BME280;59471;42.254;23.102;2022-11-20T04:11:12;95241.19;;;16.39;68.34
71621;BME280;59471;42.254;23.102;2022-11-20T04:13:40;95244.28;;;16.36;68.34
71621;BME280;59471;42.254;23.102;2022-11-20T04:16:08;95252.16;;;16.25;69.44
71621;BME280;59471;42.254;23.102;2022-11-20T04:18:35;95249.84;;;16.05;71.38
71621;BME280;59471;42.254;23.102;2022-11-20T04:21:01;95265.44;;;15.76;73.87
71621;BME280;59471;42.254;23.102;2022-11-20T04:23:27;95264.72;;;15.69;75.80
71621;BME280;59471;42.254;23.102;2022-11-20T04:25:53;95258.59;;;15.38;77.71
71621;BME280;59471;42.254;23.102;2022-11-20T04:28:19;95254.22;;;15.32;78.46
71621;BME280;59471;42.254;23.102;2022-11-20T04:30:44;95259.81;;;15.54;77.45
71621;BME280;59471;42.254;23.102;2022-11-20T04:33:10;95264.63;;;15.27;78.26
71621;BME280;59471;42.254;23.102;2022-11-20T04:35:36;95253.91;;;15.22;78.05
71621;BME280;59471;42.254;23.102;2022-11-20T04:38:03;95263.50;;;15.35;77.96
71621;BME280;59471;42.254;23.102;2022-11-20T04:40:29;95260.94;;;15.10;79.57
71621;BME280;59471;42.254;23.102;2022-11-20T04:42:56;95260.34;;;14.89;80.46
71621;BME280;59471;42.254;23.102;2022-11-20T04:45:24;95264.88;;;14.82;81.11
71621;BME280;59471;42.254;23.102;2022-11-20T04:47:50;95271.63;;;14.96;80.93
71621;BME280;59471;42.254;23.102;2022-11-20T04:50:15;95269.34;;;14.81;82.48
71621;BME280;59471;42.254;23.102;2022-11-20T04:52:41;95272.63;;;14.77;81.83
71621;BME280;59471;42.254;23.102;2022-11-20T04:55:06;95275.88;;;14.79;81.17
71621;BME280;59471;42.254;23.102;2022-11-20T04:57:32;95270.09;;;14.89;80.71
71621;BME280;59471;42.254;23.102;2022-11-20T04:59:58;95280.13;;;14.98;80.38
71621;BME280;59471;42.254;23.102;2022-11-20T05:02:23;95274.88;;;14.98;79.80
71621;BME280;59471;42.254;23.102;2022-11-20T05:04:49;95274.44;;;15.01;79.58
71621;BME280;59471;42.254;23.102;2022-11-20T05:07:15;95291.59;;;15.11;78.75
71621;BME280;59471;42.254;23.102;2022-11-20T05:09:40;95290.47;;;15.18;79.28
71621;BME280;59471;42.254;23.102;2022-11-20T05:12:07;95274.13;;;15.28;79.58
71621;BME280;59471;42.254;23.102;2022-11-20T05:14:34;95273.69;;;15.31;79.51
71621;BME280;59471;42.254;23.102;2022-11-20T05:16:59;95282.63;;;15.30;80.37
71621;BME280;59471;42.254;23.102;2022-11-20T05:19:25;95277.16;;;15.13;81.10
71621;BME280;59471;42.254;23.102;2022-11-20T05:21:50;95269.09;;;15.08;81.96
71621;BME280;59471;42.254;23.102;2022-11-20T05:24:16;95285.34;;;15.05;81.81
71621;BME280;59471;42.254;23.102;2022-11-20T05:26:42;95285.84;;;14.45;85.36
71621;BME280;59471;42.254;23.102;2022-11-20T05:29:10;95286.00;;;14.25;87.21
71621;BME280;59471;42.254;23.102;2022-11-20T05:31:38;95272.94;;;14.37;86.57
71621;BME280;59471;42.254;23.102;2022-11-20T05:34:05;95263.38;;;14.68;84.18
71621;BME280;59471;42.254;23.102;2022-11-20T05:36:30;95256.50;;;14.67;84.93
71621;BME280;59471;42.254;23.102;2022-11-20T05:38:56;95263.13;;;14.76;83.73
71621;BME280;59471;42.254;23.102;2022-11-20T05:41:21;95267.16;;;14.22;86.64
71621;BME280;59471;42.254;23.102;2022-11-20T05:43:48;95265.31;;;14.29;86.97
71621;BME280;59471;42.254;23.102;2022-11-20T05:46:16;95255.75;;;14.34;85.67
71621;BME280;59471;42.254;23.102;2022-11-20T05:48:44;95267.41;;;14.45;84.09
71621;BME280;59471;42.254;23.102;2022-11-20T05:51:13;95273.13;;;14.67;83.74
71621;BME280;59471;42.254;23.102;2022-11-20T05:53:40;95263.63;;;14.84;82.21
71621;BME280;59471;42.254;23.102;2022-11-20T05:56:09;95271.94;;;14.88;82.34
71621;BME280;59471;42.254;23.102;2022-11-20T05:58:36;95272.53;;;15.09;80.43
71621;BME280;59471;42.254;23.102;2022-11-20T06:01:21;95280.28;;;15.22;79.23
71621;BME280;59471;42.254;23.102;2022-11-20T06:03:49;95257.50;;;15.27;77.56
71621;BME280;59471;42.254;23.102;2022-11-20T06:06:16;95255.22;;;15.49;77.18
71621;BME280;59471;42.254;23.102;2022-11-20T06:08:43;95275.31;;;15.32;78.06
71621;BME280;59471;42.254;23.102;2022-11-20T06:11:11;95273.03;;;15.36;77.59
71621;BME280;59471;42.254;23.102;2022-11-20T06:13:38;95275.00;;;15.22;78.09
71621;BME280;59471;42.254;23.102;2022-11-20T06:16:04;95270.31;;;15.05;80.58
71621;BME280;59471;42.254;23.102;2022-11-20T06:18:30;95266.50;;;14.83;81.55
71621;BME280;59471;42.254;23.102;2022-11-20T06:21:17;95258.69;;;14.95;81.63
71621;BME280;59471;42.254;23.102;2022-11-20T06:23:44;95248.50;;;14.98;81.46
71621;BME280;59471;42.254;23.102;2022-11-20T06:26:15;95251.13;;;14.98;81.91
71621;BME280;59471;42.254;23.102;2022-11-20T06:28:48;95249.28;;;14.99;82.36
71621;BME280;59471;42.254;23.102;2022-11-20T06:31:17;95260.94;;;15.10;81.84
71621;BME280;59471;42.254;23.102;2022-11-20T06:33:45;95266.34;;;14.96;81.74
71621;BME280;59471;42.254;23.102;2022-11-20T06:36:12;95257.72;;;15.07;81.40
71621;BME280;59471;42.254;23.102;2022-11-20T06:38:39;95261.16;;;15.08;81.50
71621;BME280;59471;42.254;23.102;2022-11-20T06:41:06;95266.00;;;15.11;81.09
71621;BME280;59471;42.254;23.102;2022-11-20T06:43:33;95266.44;;;15.08;80.61
71621;BME280;59471;42.254;23.102;2022-11-20T06:45:59;95270.31;;;15.05;80.72
71621;BME280;59471;42.254;23.102;2022-11-20T06:48:28;95269.44;;;15.12;78.16
71621;BME280;59471;42.254;23.102;2022-11-20T06:50:55;95280.97;;;15.36;76.43
71621;BME280;59471;42.254;23.102;2022-11-20T06:53:22;95286.16;;;15.42;75.13
71621;BME280;59471;42.254;23.102;2022-11-20T06:55:50;95279.56;;;15.51;75.42
71621;BME280;59471;42.254;23.102;2022-11-20T06:58:16;95277.94;;;15.69;74.70
71621;BME280;59471;42.254;23.102;2022-11-20T07:00:42;95284.84;;;15.70;75.35
71621;BME280;59471;42.254;23.102;2022-11-20T07:03:09;95281.72;;;15.73;75.48
71621;BME280;59471;42.254;23.102;2022-11-20T07:05:36;95281.75;;;15.55;76.61
71621;BME280;59471;42.254;23.102;2022-11-20T07:08:04;95297.34;;;15.56;76.78
71621;BME280;59471;42.254;23.102;2022-11-20T07:10:30;95297.22;;;15.33;78.86
71621;BME280;59471;42.254;23.102;2022-11-20T07:12:55;95288.63;;;15.37;79.04
71621;BME280;59471;42.254;23.102;2022-11-20T07:15:23;95293.63;;;15.27;80.32
71621;BME280;59471;42.254;23.102;2022-11-20T07:17:49;95287.38;;;15.03;81.73
71621;BME280;59471;42.254;23.102;2022-11-20T07:20:15;95291.72;;;15.16;81.82
71621;BME280;59471;42.254;23.102;2022-11-20T07:22:41;95297.31;;;14.82;83.09
71621;BME280;59471;42.254;23.102;2022-11-20T07:25:07;95293.63;;;15.09;81.32
71621;BME280;59471;42.254;23.102;2022-11-20T07:27:34;95293.34;;;15.17;80.92
71621;BME280;59471;42.254;23.102;2022-11-20T07:30:00;95296.34;;;15.39;80.32
71621;BME280;59471;42.254;23.102;2022-11-20T07:32:26;95280.44;;;15.45;78.93
71621;BME280;59471;42.254;23.102;2022-11-20T07:34:51;95283.97;;;15.39;79.37
71621;BME280;59471;42.254;23.102;2022-11-20T07:37:17;95291.34;;;15.30;80.24
71621;BME280;59471;42.254;23.102;2022-11-20T07:39:43;95311.34;;;15.38;80.31
71621;BME280;59471;42.254;23.102;2022-11-20T07:42:09;95308.34;;;15.35;80.41
71621;BME280;59471;42.254;23.102;2022-11-20T07:44:35;95310.78;;;15.36;80.47
71621;BME280;59471;42.254;23.102;2022-11-20T07:47:01;95317.66;;;15.37;80.58
71621;BME280;59471;42.254;23.102;2022-11-20T07:49:27;95320.03;;;15.45;81.20
71621;BME280;59471;42.254;23.102;2022-11-20T07:51:53;95313.13;;;15.26;82.20
71621;BME280;59471;42.254;23.102;2022-11-20T07:54:22;95305.66;;;15.23;83.43
71621;BME280;59471;42.254;23.102;2022-11-20T07:56:48;95295.22;;;15.28;82.58
71621;BME280;59471;42.254;23.102;2022-11-20T07:59:15;95294.06;;;15.42;82.87
71621;BME280;59471;42.254;23.102;2022-11-20T08:01:41;95297.44;;;15.49;81.70
71621;BME280;59471;42.254;23.102;2022-11-20T08:04:08;95287.03;;;15.36;82.63
71621;BME280;59471;42.254;23.102;2022-11-20T08:06:35;95283.16;;;15.20;82.50
71621;BME280;59471;42.254;23.102;2022-11-20T08:09:01;95288.19;;;15.03;83.26
71621;BME280;59471;42.254;23.102;2022-11-20T08:11:27;95301.53;;;15.09;81.81
71621;BME280;59471;42.254;23.102;2022-11-20T08:14:11;95293.63;;;15.09;81.17
71621;BME280;59471;42.254;23.102;2022-11-20T08:16:47;95303.13;;;15.10;81.75
71621;BME280;59471;42.254;23.102;2022-11-20T08:19:16;95307.38;;;14.92;82.62
71621;BME280;59471;42.254;23.102;2022-11-20T08:21:43;95315.13;;;14.87;84.10
71621;BME280;59471;42.254;23.102;2022-11-20T08:24:10;95329.09;;;14.63;85.33
71621;BME280;59471;42.254;23.102;2022-11-20T08:26:36;95311.75;;;14.55;86.40
71621;BME280;59471;42.254;23.102;2022-11-20T08:29:03;95309.44;;;14.65;86.65
71621;BME280;59471;42.254;23.102;2022-11-20T08:31:29;95308.63;;;14.65;86.99
71621;BME280;59471;42.254;23.102;2022-11-20T08:33:55;95305.66;;;14.54;88.38
71621;BME280;59471;42.254;23.102;2022-11-20T08:36:22;95310.09;;;14.60;87.15
71621;BME280;59471;42.254;23.102;2022-11-20T08:38:53;95325.28;;;14.58;87.91
71621;BME280;59471;42.254;23.102;2022-11-20T08:41:20;95328.78;;;14.52;87.46
71621;BME280;59471;42.254;23.102;2022-11-20T08:44:07;95339.94;;;14.54;86.42
71621;BME280;59471;42.254;23.102;2022-11-20T08:46:40;95328.59;;;14.47;87.41
71621;BME280;59471;42.254;23.102;2022-11-20T08:49:10;95320.28;;;14.50;87.51
71621;BME280;59471;42.254;23.102;2022-11-20T08:51:37;95313.56;;;14.54;88.00
71621;BME280;59471;42.254;23.102;2022-11-20T08:54:04;95311.69;;;14.62;87.44
71621;BME280;59471;42.254;23.102;2022-11-20T08:56:30;95310.81;;;14.68;87.47
71621;BME280;59471;42.254;23.102;2022-11-20T08:58:56;95330.09;;;14.68;86.67
71621;BME280;59471;42.254;23.102;2022-11-20T09:01:22;95315.06;;;14.69;87.38
71621;BME280;59471;42.254;23.102;2022-11-20T09:03:49;95316.41;;;14.78;85.60
71621;BME280;59471;42.254;23.102;2022-11-20T09:06:15;95318.13;;;14.66;85.52
71621;BME280;59471;42.254;23.102;2022-11-20T09:08:41;95315.97;;;14.81;83.15
71621;BME280;59471;42.254;23.102;2022-11-20T09:11:07;95322.31;;;14.98;83.15
71621;BME280;59471;42.254;23.102;2022-11-20T09:13:34;95311.22;;;15.15;82.33
71621;BME280;59471;42.254;23.102;2022-11-20T09:16:04;95323.44;;;15.09;84.26
71621;BME280;59471;42.254;23.102;2022-11-20T09:18:32;95319.72;;;15.17;85.19
71621;BME280;59471;42.254;23.102;2022-11-20T09:20:58;95314.81;;;15.20;82.58
71621;BME280;59471;42.254;23.102;2022-11-20T09:23:25;95324.53;;;15.38;82.92
71621;BME280;59471;42.254;23.102;2022-11-20T09:25:51;95334.59;;;15.29;83.47
71621;BME280;59471;42.254;23.102;2022-11-20T09:28:18;95326.53;;;15.24;84.65
71621;BME280;59471;42.254;23.102;2022-11-20T09:30:44;95320.97;;;15.14;85.19
71621;BME280;59471;42.254;23.102;2022-11-20T09:33:10;95310.78;;;15.18;84.94
71621;BME280;59471;42.254;23.102;2022-11-20T09:35:35;95300.50;;;15.28;84.42
71621;BME280;59471;42.254;23.102;2022-11-20T09:38:07;95292.91;;;15.20;84.86
71621;BME280;59471;42.254;23.102;2022-11-20T09:40:34;95297.56;;;14.99;86.42
71621;BME280;59471;42.254;23.102;2022-11-20T09:49:13;95253.47;;;15.06;88.58
71621;BME280;59471;42.254;23.102;2022-11-20T09:52:09;95248.72;;;15.15;87.72
71621;BME280;59471;42.254;23.102;2022-11-20T09:54:44;95245.41;;;15.01;87.17
71621;BME280;59471;42.254;23.102;2022-11-20T09:57:17;95241.94;;;15.38;85.88
71621;BME280;59471;42.254;23.102;2022-11-20T09:59:46;95224.78;;;15.17;86.05
71621;BME280;59471;42.254;23.102;2022-11-20T10:07:24;95218.63;;;15.23;84.04
71621;BME280;59471;42.254;23.102;2022-11-20T10:09:55;95215.34;;;15.58;83.64
71621;BME280;59471;42.254;23.102;2022-11-20T10:15:33;95218.66;;;15.83;80.86
71621;BME280;59471;42.254;23.102;2022-11-20T10:18:27;95205.56;;;15.88;80.37
71621;BME280;59471;42.254;23.102;2022-11-20T10:30:29;95187.81;;;16.07;78.07
71621;BME280;59471;42.254;23.102;2022-11-20T10:33:03;95191.84;;;16.10;76.63
71621;BME280;59471;42.254;23.102;2022-11-20T10:38:13;95189.72;;;15.88;77.83
71621;BME280;59471;42.254;23.102;2022-11-20T10:40:44;95178.19;;;16.13;76.75
71621;BME280;59471;42.254;23.102;2022-11-20T10:43:16;95185.66;;;16.16;75.79
71621;BME280;59471;42.254;23.102;2022-11-20T10:45:49;95200.00;;;16.20;75.49
71621;BME280;59471;42.254;23.102;2022-11-20T10:48:25;95190.72;;;16.29;74.34
71621;BME280;59471;42.254;23.102;2022-11-20T10:57:00;95208.63;;;16.39;73.13
71621;BME280;59471;42.254;23.102;2022-11-20T11:02:56;95225.75;;;16.25;76.72
71621;BME280;59471;42.254;23.102;2022-11-20T11:05:41;95241.88;;;15.93;78.05
71621;BME280;59471;42.254;23.102;2022-11-20T11:08:16;95257.13;;;15.61;79.29
71621;BME280;59471;42.254;23.102;2022-11-20T11:13:29;95276.47;;;14.99;83.43
71621;BME280;59471;42.254;23.102;2022-11-20T11:15:56;95276.53;;;14.93;84.38
71621;BME280;59471;42.254;23.102;2022-11-20T11:18:30;95265.47;;;14.84;84.52
71621;BME280;59471;42.254;23.102;2022-11-20T11:20:59;95276.75;;;14.73;85.92
71621;BME280;59471;42.254;23.102;2022-11-20T11:23:31;95274.78;;;14.62;86.27
71621;BME280;59471;42.254;23.102;2022-11-20T11:26:04;95268.19;;;14.52;86.71
71621;BME280;59471;42.254;23.102;2022-11-20T11:28:59;95282.97;;;14.47;86.62
71621;BME280;59471;42.254;23.102;2022-11-20T11:31:27;95269.72;;;14.35;87.62
71621;BME280;59471;42.254;23.102;2022-11-20T11:36:32;95277.88;;;13.95;87.89
71621;BME280;59471;42.254;23.102;2022-11-20T11:39:00;95287.38;;;13.96;88.38
71621;BME280;59471;42.254;23.102;2022-11-20T11:41:32;95303.25;;;13.83;89.62
71621;BME280;59471;42.254;23.102;2022-11-20T11:44:15;95307.38;;;13.72;89.63
71621;BME280;59471;42.254;23.102;2022-11-20T11:47:02;95325.22;;;13.63;90.37
71621;BME280;59471;42.254;23.102;2022-11-20T11:49:30;95320.06;;;13.37;91.81
71621;BME280;59471;42.254;23.102;2022-11-20T12:00:10;95350.00;;;13.22;90.10
71621;BME280;59471;42.254;23.102;2022-11-20T12:08:03;95327.94;;;13.43;89.67
71621;BME280;59471;42.254;23.102;2022-11-20T12:10:43;95321.56;;;13.64;90.13
71621;BME280;59471;42.254;23.102;2022-11-20T12:15:48;95289.19;;;14.02;88.65
71621;BME280;59471;42.254;23.102;2022-11-20T12:18:21;95296.59;;;14.19;87.75
71621;BME280;59471;42.254;23.102;2022-11-20T12:26:44;95289.56;;;13.67;92.90
71621;BME280;59471;42.254;23.102;2022-11-20T12:29:23;95283.28;;;14.07;90.85
71621;BME280;59471;42.254;23.102;2022-11-20T12:37:30;95256.56;;;14.35;91.04
71621;BME280;59471;42.254;23.102;2022-11-20T12:40:46;95247.28;;;14.57;89.95
71621;BME280;59471;42.254;23.102;2022-11-20T12:43:21;95244.88;;;14.49;89.71
71621;BME280;59471;42.254;23.102;2022-11-20T12:58:00;95220.88;;;15.01;88.43
71621;BME280;59471;42.254;23.102;2022-11-20T13:00:31;95222.56;;;14.95;88.48
71621;BME280;59471;42.254;23.102;2022-11-20T13:05:46;95220.38;;;14.92;87.79
71621;BME280;59471;42.254;23.102;2022-11-20T13:08:39;95211.28;;;14.88;87.45
71621;BME280;59471;42.254;23.102;2022-11-20T13:11:25;95211.28;;;14.88;86.77
71621;BME280;59471;42.254;23.102;2022-11-20T13:18:55;95186.22;;;14.97;84.95
71621;BME280;59471;42.254;23.102;2022-11-20T13:21:23;95183.31;;;14.87;85.07
71621;BME280;59471;42.254;23.102;2022-11-20T13:29:34;95184.16;;;15.18;83.84
71621;BME280;59471;42.254;23.102;2022-11-20T13:32:17;95189.44;;;15.18;82.59
71621;BME280;59471;42.254;23.102;2022-11-20T13:34:56;95181.81;;;15.10;83.55
71621;BME280;59471;42.254;23.102;2022-11-20T13:37:30;95174.78;;;15.22;81.71
71621;BME280;59471;42.254;23.102;2022-11-20T13:43:10;95163.56;;;15.26;81.63
71621;BME280;59471;42.254;23.102;2022-11-20T13:46:03;95160.19;;;15.19;81.67
71621;BME280;59471;42.254;23.102;2022-11-20T13:48:33;95150.94;;;14.98;82.82
71621;BME280;59471;42.254;23.102;2022-11-20T13:56:58;95121.34;;;14.78;82.18
71621;BME280;59471;42.254;23.102;2022-11-20T14:02:23;95131.03;;;14.84;80.04
71621;BME280;59471;42.254;23.102;2022-11-20T14:04:52;95132.84;;;15.02;79.35
71621;BME280;59471;42.254;23.102;2022-11-20T14:07:22;95143.56;;;15.19;78.84
71621;BME280;59471;42.254;23.102;2022-11-20T14:09:52;95125.25;;;15.24;79.24
71621;BME280;59471;42.254;23.102;2022-11-20T14:12:31;95128.94;;;15.23;79.08
71621;BME280;59471;42.254;23.102;2022-11-20T14:14:58;95123.50;;;15.18;78.96
71621;BME280;59471;42.254;23.102;2022-11-20T14:17:29;95121.56;;;15.25;77.80
71621;BME280;59471;42.254;23.102;2022-11-20T14:20:00;95123.25;;;15.19;78.29
71621;BME280;59471;42.254;23.102;2022-11-20T14:22:29;95123.25;;;15.19;77.99
71621;BME280;59471;42.254;23.102;2022-11-20T14:27:48;95108.84;;;15.22;77.63
71621;BME280;59471;42.254;23.102;2022-11-20T14:30:43;95128.78;;;15.18;76.42
71621;BME280;59471;42.254;23.102;2022-11-20T14:33:12;95116.03;;;15.15;76.89
71621;BME280;59471;42.254;23.102;2022-11-20T14:35:46;95117.81;;;15.02;76.93
71621;BME280;59471;42.254;23.102;2022-11-20T14:38:16;95120.59;;;15.07;77.08
71621;BME280;59471;42.254;23.102;2022-11-20T14:40:44;95098.28;;;15.22;77.20
71621;BME280;59471;42.254;23.102;2022-11-20T14:43:25;95103.16;;;15.06;77.23
71621;BME280;59471;42.254;23.102;2022-11-20T14:48:33;95098.94;;;14.87;77.14
71621;BME280;59471;42.254;23.102;2022-11-20T14:51:03;95115.19;;;14.84;77.35
71621;BME280;59471;42.254;23.102;2022-11-20T14:53:29;95108.97;;;14.97;77.38
71621;BME280;59471;42.254;23.102;2022-11-20T14:56:00;95115.28;;;14.77;77.38
71621;BME280;59471;42.254;23.102;2022-11-20T14:58:29;95119.47;;;14.67;77.32
71621;BME280;59471;42.254;23.102;2022-11-20T15:01:05;95114.59;;;14.45;78.35
71621;BME280;59471;42.254;23.102;2022-11-20T15:03:37;95109.00;;;14.60;78.15